sensor_id;sensor_type;location;lat;lon;timestamp;temperature;humidity
25438;DHT22;13364;49.084;9.978;2024-02-21T06:46:27;5.10;95.10
25438;DHT22;13364;49.084;9.978;2024-02-21T06:48:56;5.10;95.30
25438;DHT22;13364;49.084;9.978;2024-02-21T06:51:24;5.00;95.60
25438;DHT22;13364;49.084;9.978;2024-02-21T06:53:54;5.00;95.90
25438;DHT22;13364;49.084;9.978;2024-02-21T06:56:23;5.00;96.20
25438;DHT22;13364;49.084;9.978;2024-02-21T06:58:55;5.00;96.30
25438;DHT22;13364;49.084;9.978;2024-02-21T07:01:22;5.00;96.70
25438;DHT22;13364;49.084;9.978;2024-02-21T07:03:50;5.00;97.00
25438;DHT22;13364;49.084;9.978;2024-02-21T07:06:17;5.00;97.20
25438;DHT22;13364;49.084;9.978;2024-02-21T07:08:44;5.10;97.10
25438;DHT22;13364;49.084;9.978;2024-02-21T07:11:11;5.10;97.00
25438;DHT22;13364;49.084;9.978;2024-02-21T07:13:38;5.20;96.70
25438;DHT22;13364;49.084;9.978;2024-02-21T07:16:05;5.30;96.00
25438;DHT22;13364;49.084;9.978;2024-02-21T07:18:32;5.30;95.90
25438;DHT22;13364;49.084;9.978;2024-02-21T07:20:59;5.40;95.70
25438;DHT22;13364;49.084;9.978;2024-02-21T07:23:26;5.50;95.30
25438;DHT22;13364;49.084;9.978;2024-02-21T07:25:53;5.40;95.20
25438;DHT22;13364;49.084;9.978;2024-02-21T07:28:20;5.50;95.30
25438;DHT22;13364;49.084;9.978;2024-02-21T07:30:47;5.60;95.30
25438;DHT22;13364;49.084;9.978;2024-02-21T07:33:13;5.60;95.00
25438;DHT22;13364;49.084;9.978;2024-02-21T07:35:41;5.70;94.70
25438;DHT22;13364;49.084;9.978;2024-02-21T07:38:08;5.70;94.00
25438;DHT22;13364;49.084;9.978;2024-02-21T07:40:39;5.70;93.80
25438;DHT22;13364;49.084;9.978;2024-02-21T07:43:06;5.70;93.60
25438;DHT22;13364;49.084;9.978;2024-02-21T07:45:32;5.70;93.50
25438;DHT22;13364;49.084;9.978;2024-02-21T07:47:59;5.70;93.20
25438;DHT22;13364;49.084;9.978;2024-02-21T07:50:26;5.80;93.30
25438;DHT22;13364;49.084;9.978;2024-02-21T07:52:54;5.80;93.30
25438;DHT22;13364;49.084;9.978;2024-02-21T07:55:21;5.90;93.20
25438;DHT22;13364;49.084;9.978;2024-02-21T07:57:48;5.90;93.00
25438;DHT22;13364;49.084;9.978;2024-02-21T08:00:16;6.00;92.80
25438;DHT22;13364;49.084;9.978;2024-02-21T08:02:48;6.10;92.60
25438;DHT22;13364;49.084;9.978;2024-02-21T08:05:15;6.10;92.30
25438;DHT22;13364;49.084;9.978;2024-02-21T08:07:42;6.10;92.00
25438;DHT22;13364;49.084;9.978;2024-02-21T08:10:09;6.20;91.80
25438;DHT22;13364;49.084;9.978;2024-02-21T08:12:36;6.30;91.50
25438;DHT22;13364;49.084;9.978;2024-02-21T08:15:03;6.40;91.10
25438;DHT22;13364;49.084;9.978;2024-02-21T08:17:30;6.40;90.70
25438;DHT22;13364;49.084;9.978;2024-02-21T08:19:57;6.40;90.50
25438;DHT22;13364;49.084;9.978;2024-02-21T08:22:24;6.50;90.70
25438;DHT22;13364;49.084;9.978;2024-02-21T08:24:53;6.60;90.50
25438;DHT22;13364;49.084;9.978;2024-02-21T08:27:19;6.70;90.30
25438;DHT22;13364;49.084;9.978;2024-02-21T08:29:46;6.80;90.20
25438;DHT22;13364;49.084;9.978;2024-02-21T08:32:13;7.00;90.00
25438;DHT22;13364;49.084;9.978;2024-02-21T08:34:40;7.10;89.60
25438;DHT22;13364;49.084;9.978;2024-02-21T08:37:07;7.20;89.20
25438;DHT22;13364;49.084;9.978;2024-02-21T08:39:34;7.30;88.50
25438;DHT22;13364;49.084;9.978;2024-02-21T08:42:01;7.30;87.40
25438;DHT22;13364;49.084;9.978;2024-02-21T08:44:28;7.30;87.20
25438;DHT22;13364;49.084;9.978;2024-02-21T08:46:55;7.40;87.60
25438;DHT22;13364;49.084;9.978;2024-02-21T08:49:23;7.50;86.80
25438;DHT22;13364;49.084;9.978;2024-02-21T08:51:52;7.70;87.10
25438;DHT22;13364;49.084;9.978;2024-02-21T08:54:19;7.80;86.50
25438;DHT22;13364;49.084;9.978;2024-02-21T08:56:45;8.00;85.20
25438;DHT22;13364;49.084;9.978;2024-02-21T08:59:12;8.10;84.90
25438;DHT22;13364;49.084;9.978;2024-02-21T09:01:40;8.30;84.20
25438;DHT22;13364;49.084;9.978;2024-02-21T09:04:07;8.40;83.10
25438;DHT22;13364;49.084;9.978;2024-02-21T09:06:34;8.40;82.80
25438;DHT22;13364;49.084;9.978;2024-02-21T09:09:04;8.60;82.90
25438;DHT22;13364;49.084;9.978;2024-02-21T09:11:30;8.70;82.80
25438;DHT22;13364;49.084;9.978;2024-02-21T09:13:57;8.80;81.30
25438;DHT22;13364;49.084;9.978;2024-02-21T09:16:24;8.90;81.60
25438;DHT22;13364;49.084;9.978;2024-02-21T09:18:51;9.00;80.40
25438;DHT22;13364;49.084;9.978;2024-02-21T09:21:19;9.00;80.30
25438;DHT22;13364;49.084;9.978;2024-02-21T09:23:46;9.10;80.70
25438;DHT22;13364;49.084;9.978;2024-02-21T09:26:13;9.10;79.70
25438;DHT22;13364;49.084;9.978;2024-02-21T09:28:43;9.10;78.80
25438;DHT22;13364;49.084;9.978;2024-02-21T09:31:11;9.10;78.60
25438;DHT22;13364;49.084;9.978;2024-02-21T09:33:38;9.10;79.50
25438;DHT22;13364;49.084;9.978;2024-02-21T09:36:05;9.20;78.40
25438;DHT22;13364;49.084;9.978;2024-02-21T09:38:32;9.10;76.70
25438;DHT22;13364;49.084;9.978;2024-02-21T09:41:15;9.10;77.60
25438;DHT22;13364;49.084;9.978;2024-02-21T09:43:51;9.20;77.70
25438;DHT22;13364;49.084;9.978;2024-02-21T09:46:52;9.20;76.70
25438;DHT22;13364;49.084;9.978;2024-02-21T09:49:32;9.20;77.20
25438;DHT22;13364;49.084;9.978;2024-02-21T09:52:04;9.20;76.80
25438;DHT22;13364;49.084;9.978;2024-02-21T09:54:33;9.20;76.20
25438;DHT22;13364;49.084;9.978;2024-02-21T09:57:01;9.30;77.20
25438;DHT22;13364;49.084;9.978;2024-02-21T09:59:31;9.40;76.50
25438;DHT22;13364;49.084;9.978;2024-02-21T10:01:58;9.50;76.80
25438;DHT22;13364;49.084;9.978;2024-02-21T10:04:29;9.60;76.90
25438;DHT22;13364;49.084;9.978;2024-02-21T10:06:57;9.60;76.50
25438;DHT22;13364;49.084;9.978;2024-02-21T10:09:25;9.70;76.10
25438;DHT22;13364;49.084;9.978;2024-02-21T10:12:11;9.80;75.30
25438;DHT22;13364;49.084;9.978;2024-02-21T10:14:39;9.90;74.80
25438;DHT22;13364;49.084;9.978;2024-02-21T10:17:06;10.00;75.60
25438;DHT22;13364;49.084;9.978;2024-02-21T10:19:38;10.10;74.70
25438;DHT22;13364;49.084;9.978;2024-02-21T10:22:09;10.10;73.50
25438;DHT22;13364;49.084;9.978;2024-02-21T10:24:37;10.20;73.40
25438;DHT22;13364;49.084;9.978;2024-02-21T10:27:10;10.20;73.30
25438;DHT22;13364;49.084;9.978;2024-02-21T10:29:39;10.20;74.00
25438;DHT22;13364;49.084;9.978;2024-02-21T10:32:11;10.30;74.70
25438;DHT22;13364;49.084;9.978;2024-02-21T10:34:41;10.40;74.00
25438;DHT22;13364;49.084;9.978;2024-02-21T10:37:10;10.50;74.70
25438;DHT22;13364;49.084;9.978;2024-02-21T10:39:39;10.60;72.70
25438;DHT22;13364;49.084;9.978;2024-02-21T10:42:07;10.60;72.20
25438;DHT22;13364;49.084;9.978;2024-02-21T10:44:39;10.60;72.60
25438;DHT22;13364;49.084;9.978;2024-02-21T10:47:08;10.60;71.70
25438;DHT22;13364;49.084;9.978;2024-02-21T10:49:40;10.60;71.90
25438;DHT22;13364;49.084;9.978;2024-02-21T10:55:05;10.80;72.20
25438;DHT22;13364;49.084;9.978;2024-02-21T11:02:21;11.10;70.20
25438;DHT22;13364;49.084;9.978;2024-02-21T11:04:57;11.20;69.20
25438;DHT22;13364;49.084;9.978;2024-02-21T11:07:27;11.20;69.10
25438;DHT22;13364;49.084;9.978;2024-02-21T11:10:03;11.30;68.60
25438;DHT22;13364;49.084;9.978;2024-02-21T11:12:32;11.30;67.90
25438;DHT22;13364;49.084;9.978;2024-02-21T11:15:07;11.40;67.60
25438;DHT22;13364;49.084;9.978;2024-02-21T11:17:34;11.40;66.20
25438;DHT22;13364;49.084;9.978;2024-02-21T11:20:13;11.30;67.20
25438;DHT22;13364;49.084;9.978;2024-02-21T11:22:41;11.30;67.80
25438;DHT22;13364;49.084;9.978;2024-02-21T11:25:09;11.40;69.10
25438;DHT22;13364;49.084;9.978;2024-02-21T11:27:38;11.50;67.70
25438;DHT22;13364;49.084;9.978;2024-02-21T11:30:05;11.60;66.80
25438;DHT22;13364;49.084;9.978;2024-02-21T11:32:32;11.70;68.30
25438;DHT22;13364;49.084;9.978;2024-02-21T11:35:03;11.80;67.70
25438;DHT22;13364;49.084;9.978;2024-02-21T11:37:35;11.90;66.00
25438;DHT22;13364;49.084;9.978;2024-02-21T11:40:06;12.00;67.20
25438;DHT22;13364;49.084;9.978;2024-02-21T11:42:37;12.10;65.60
25438;DHT22;13364;49.084;9.978;2024-02-21T11:45:04;12.30;65.00
25438;DHT22;13364;49.084;9.978;2024-02-21T11:47:31;12.30;63.40
25438;DHT22;13364;49.084;9.978;2024-02-21T11:49:58;12.30;62.60
25438;DHT22;13364;49.084;9.978;2024-02-21T11:52:25;12.20;63.30
25438;DHT22;13364;49.084;9.978;2024-02-21T11:54:54;12.30;63.10
25438;DHT22;13364;49.084;9.978;2024-02-21T11:57:22;12.30;62.40
25438;DHT22;13364;49.084;9.978;2024-02-21T11:59:49;12.40;62.40
25438;DHT22;13364;49.084;9.978;2024-02-21T12:02:23;12.40;61.80
25438;DHT22;13364;49.084;9.978;2024-02-21T12:04:51;12.40;61.40
25438;DHT22;13364;49.084;9.978;2024-02-21T12:07:18;12.50;60.80
25438;DHT22;13364;49.084;9.978;2024-02-21T12:09:45;12.40;61.00
25438;DHT22;13364;49.084;9.978;2024-02-21T12:12:12;12.50;60.70
25438;DHT22;13364;49.084;9.978;2024-02-21T12:14:39;12.50;61.20
25438;DHT22;13364;49.084;9.978;2024-02-21T12:17:06;12.50;61.20
25438;DHT22;13364;49.084;9.978;2024-02-21T12:19:34;12.60;62.20
25438;DHT22;13364;49.084;9.978;2024-02-21T12:22:01;12.60;61.90
25438;DHT22;13364;49.084;9.978;2024-02-21T12:24:32;12.60;62.10
25438;DHT22;13364;49.084;9.978;2024-02-21T12:26:59;12.60;60.60
25438;DHT22;13364;49.084;9.978;2024-02-21T12:29:27;12.70;60.80
25438;DHT22;13364;49.084;9.978;2024-02-21T12:31:55;12.80;60.10
25438;DHT22;13364;49.084;9.978;2024-02-21T12:34:23;12.80;60.50
25438;DHT22;13364;49.084;9.978;2024-02-21T12:37:04;12.80;61.00
25438;DHT22;13364;49.084;9.978;2024-02-21T12:39:31;12.90;59.70
25438;DHT22;13364;49.084;9.978;2024-02-21T12:41:59;12.90;59.60
25438;DHT22;13364;49.084;9.978;2024-02-21T12:44:26;12.90;59.90
25438;DHT22;13364;49.084;9.978;2024-02-21T12:46:54;13.00;59.10
25438;DHT22;13364;49.084;9.978;2024-02-21T12:49:22;13.10;58.60
25438;DHT22;13364;49.084;9.978;2024-02-21T12:51:49;13.10;58.80
25438;DHT22;13364;49.084;9.978;2024-02-21T12:54:16;13.20;59.30
25438;DHT22;13364;49.084;9.978;2024-02-21T12:56:43;13.20;59.40
25438;DHT22;13364;49.084;9.978;2024-02-21T12:59:09;13.20;59.30
25438;DHT22;13364;49.084;9.978;2024-02-21T13:01:37;13.30;58.70
25438;DHT22;13364;49.084;9.978;2024-02-21T13:04:05;13.40;58.30
25438;DHT22;13364;49.084;9.978;2024-02-21T13:06:32;13.40;58.30
25438;DHT22;13364;49.084;9.978;2024-02-21T13:08:59;13.40;57.30
25438;DHT22;13364;49.084;9.978;2024-02-21T13:11:30;13.40;56.10
25438;DHT22;13364;49.084;9.978;2024-02-21T13:13:58;13.50;56.20
25438;DHT22;13364;49.084;9.978;2024-02-21T13:16:26;13.50;54.60
25438;DHT22;13364;49.084;9.978;2024-02-21T13:18:53;13.50;56.20
25438;DHT22;13364;49.084;9.978;2024-02-21T13:21:21;13.60;54.60
25438;DHT22;13364;49.084;9.978;2024-02-21T13:23:48;13.60;55.20
25438;DHT22;13364;49.084;9.978;2024-02-21T13:26:17;13.70;54.10
25438;DHT22;13364;49.084;9.978;2024-02-21T13:28:44;13.60;53.70
25438;DHT22;13364;49.084;9.978;2024-02-21T13:31:15;13.70;55.30
25438;DHT22;13364;49.084;9.978;2024-02-21T13:33:43;13.70;55.30
25438;DHT22;13364;49.084;9.978;2024-02-21T13:36:12;13.70;53.20
25438;DHT22;13364;49.084;9.978;2024-02-21T13:38:39;13.60;53.60
25438;DHT22;13364;49.084;9.978;2024-02-21T13:41:06;13.60;53.20
25438;DHT22;13364;49.084;9.978;2024-02-21T13:43:34;13.50;52.50
25438;DHT22;13364;49.084;9.978;2024-02-21T13:46:02;13.40;52.80
25438;DHT22;13364;49.084;9.978;2024-02-21T13:48:36;13.30;54.40
25438;DHT22;13364;49.084;9.978;2024-02-21T13:51:03;13.20;54.20
25438;DHT22;13364;49.084;9.978;2024-02-21T13:53:30;13.20;54.10
25438;DHT22;13364;49.084;9.978;2024-02-21T13:55:57;13.20;55.10
25438;DHT22;13364;49.084;9.978;2024-02-21T13:58:24;13.10;54.30
25438;DHT22;13364;49.084;9.978;2024-02-21T14:00:53;13.10;53.40
25438;DHT22;13364;49.084;9.978;2024-02-21T14:03:22;13.00;53.50
25438;DHT22;13364;49.084;9.978;2024-02-21T14:05:49;13.00;54.30
25438;DHT22;13364;49.084;9.978;2024-02-21T14:08:16;12.90;54.60
25438;DHT22;13364;49.084;9.978;2024-02-21T14:10:43;12.80;54.40
25438;DHT22;13364;49.084;9.978;2024-02-21T14:13:10;12.80;55.30
25438;DHT22;13364;49.084;9.978;2024-02-21T14:15:37;12.80;55.60
25438;DHT22;13364;49.084;9.978;2024-02-21T14:18:07;12.80;55.50
25438;DHT22;13364;49.084;9.978;2024-02-21T14:20:36;12.80;56.60
25438;DHT22;13364;49.084;9.978;2024-02-21T14:23:03;12.80;55.70
25438;DHT22;13364;49.084;9.978;2024-02-21T14:25:31;12.80;56.00
25438;DHT22;13364;49.084;9.978;2024-02-21T14:28:00;12.80;56.50
25438;DHT22;13364;49.084;9.978;2024-02-21T14:30:29;12.90;54.80
25438;DHT22;13364;49.084;9.978;2024-02-21T14:32:56;12.80;54.80
25438;DHT22;13364;49.084;9.978;2024-02-21T14:35:23;12.80;55.20
25438;DHT22;13364;49.084;9.978;2024-02-21T14:37:50;12.80;55.40
25438;DHT22;13364;49.084;9.978;2024-02-21T14:40:17;12.80;55.50
25438;DHT22;13364;49.084;9.978;2024-02-21T14:42:46;12.70;54.80
25438;DHT22;13364;49.084;9.978;2024-02-21T14:45:12;12.70;55.30
25438;DHT22;13364;49.084;9.978;2024-02-21T14:47:40;12.70;56.10
25438;DHT22;13364;49.084;9.978;2024-02-21T14:50:07;12.70;57.40
25438;DHT22;13364;49.084;9.978;2024-02-21T14:52:35;12.70;56.20
25438;DHT22;13364;49.084;9.978;2024-02-21T14:55:04;12.70;58.60
25438;DHT22;13364;49.084;9.978;2024-02-21T14:57:32;12.70;56.90
25438;DHT22;13364;49.084;9.978;2024-02-21T14:59:59;12.70;55.40
25438;DHT22;13364;49.084;9.978;2024-02-21T15:02:27;12.70;54.90
25438;DHT22;13364;49.084;9.978;2024-02-21T15:04:55;12.70;55.00
25438;DHT22;13364;49.084;9.978;2024-02-21T15:07:22;12.70;55.60
25438;DHT22;13364;49.084;9.978;2024-02-21T15:09:51;12.60;55.90
25438;DHT22;13364;49.084;9.978;2024-02-21T15:12:18;12.60;56.70
25438;DHT22;13364;49.084;9.978;2024-02-21T15:14:45;12.70;58.50
25438;DHT22;13364;49.084;9.978;2024-02-21T15:17:12;12.70;59.10
25438;DHT22;13364;49.084;9.978;2024-02-21T15:19:39;12.70;58.00
25438;DHT22;13364;49.084;9.978;2024-02-21T15:22:11;12.60;57.10
25438;DHT22;13364;49.084;9.978;2024-02-21T15:24:40;12.60;56.90
25438;DHT22;13364;49.084;9.978;2024-02-21T15:27:08;12.60;56.40
25438;DHT22;13364;49.084;9.978;2024-02-21T15:29:35;12.60;57.00
25438;DHT22;13364;49.084;9.978;2024-02-21T15:32:05;12.60;56.00
25438;DHT22;13364;49.084;9.978;2024-02-21T15:34:32;12.50;55.70
25438;DHT22;13364;49.084;9.978;2024-02-21T15:37:00;12.50;56.20
25438;DHT22;13364;49.084;9.978;2024-02-21T15:39:27;12.50;56.90
25438;DHT22;13364;49.084;9.978;2024-02-21T15:41:55;12.50;56.60
25438;DHT22;13364;49.084;9.978;2024-02-21T15:44:23;12.40;56.30
25438;DHT22;13364;49.084;9.978;2024-02-21T15:46:50;12.40;56.30
25438;DHT22;13364;49.084;9.978;2024-02-21T15:49:19;12.50;56.10
25438;DHT22;13364;49.084;9.978;2024-02-21T15:51:46;12.40;56.30
25438;DHT22;13364;49.084;9.978;2024-02-21T15:54:14;12.40;56.30
25438;DHT22;13364;49.084;9.978;2024-02-21T15:56:47;12.40;56.40
25438;DHT22;13364;49.084;9.978;2024-02-21T15:59:15;12.30;56.30
25438;DHT22;13364;49.084;9.978;2024-02-21T16:01:42;12.20;56.20
25438;DHT22;13364;49.084;9.978;2024-02-21T16:04:09;12.10;56.60
25438;DHT22;13364;49.084;9.978;2024-02-21T16:06:36;12.00;56.90
25438;DHT22;13364;49.084;9.978;2024-02-21T16:09:03;12.00;56.80
25438;DHT22;13364;49.084;9.978;2024-02-21T16:11:35;11.90;56.90
25438;DHT22;13364;49.084;9.978;2024-02-21T16:14:02;11.90;57.30
25438;DHT22;13364;49.084;9.978;2024-02-21T16:16:29;11.80;57.40
25438;DHT22;13364;49.084;9.978;2024-02-21T16:18:57;11.80;57.80
25438;DHT22;13364;49.084;9.978;2024-02-21T16:21:24;11.80;58.20
25438;DHT22;13364;49.084;9.978;2024-02-21T16:23:51;11.70;57.90
25438;DHT22;13364;49.084;9.978;2024-02-21T16:26:17;11.70;58.20
25438;DHT22;13364;49.084;9.978;2024-02-21T16:28:44;11.60;57.90
25438;DHT22;13364;49.084;9.978;2024-02-21T16:31:11;11.60;58.50
25438;DHT22;13364;49.084;9.978;2024-02-21T16:33:38;11.50;58.90
25438;DHT22;13364;49.084;9.978;2024-02-21T16:36:05;11.50;59.20
25438;DHT22;13364;49.084;9.978;2024-02-21T16:38:35;11.40;60.00
25438;DHT22;13364;49.084;9.978;2024-02-21T16:41:06;11.40;60.30
25438;DHT22;13364;49.084;9.978;2024-02-21T16:43:33;11.30;60.50
25438;DHT22;13364;49.084;9.978;2024-02-21T16:45:59;11.20;60.90
25438;DHT22;13364;49.084;9.978;2024-02-21T16:48:26;11.10;61.50
25438;DHT22;13364;49.084;9.978;2024-02-21T16:50:53;11.10;61.70
25438;DHT22;13364;49.084;9.978;2024-02-21T16:53:27;11.00;62.10
25438;DHT22;13364;49.084;9.978;2024-02-21T16:55:54;10.90;62.40
25438;DHT22;13364;49.084;9.978;2024-02-21T16:58:21;10.80;62.20
25438;DHT22;13364;49.084;9.978;2024-02-21T17:00:48;10.70;63.10
25438;DHT22;13364;49.084;9.978;2024-02-21T17:03:15;10.70;63.20
25438;DHT22;13364;49.084;9.978;2024-02-21T17:05:47;10.60;63.10
25438;DHT22;13364;49.084;9.978;2024-02-21T17:08:21;10.60;63.40
25438;DHT22;13364;49.084;9.978;2024-02-21T17:10:47;10.60;63.50
25438;DHT22;13364;49.084;9.978;2024-02-21T17:13:14;10.60;63.50
25438;DHT22;13364;49.084;9.978;2024-02-21T17:15:41;10.50;63.60
25438;DHT22;13364;49.084;9.978;2024-02-21T17:18:08;10.50;63.80
25438;DHT22;13364;49.084;9.978;2024-02-21T17:20:35;10.40;63.90
25438;DHT22;13364;49.084;9.978;2024-02-21T17:23:02;10.40;64.10
25438;DHT22;13364;49.084;9.978;2024-02-21T17:25:29;10.30;64.30
25438;DHT22;13364;49.084;9.978;2024-02-21T17:27:56;10.30;64.50
25438;DHT22;13364;49.084;9.978;2024-02-21T17:30:23;10.30;64.90
25438;DHT22;13364;49.084;9.978;2024-02-21T17:32:52;10.20;65.30
25438;DHT22;13364;49.084;9.978;2024-02-21T17:35:19;10.10;65.80
25438;DHT22;13364;49.084;9.978;2024-02-21T17:37:45;10.10;66.20
25438;DHT22;13364;49.084;9.978;2024-02-21T17:40:13;10.00;66.60
25438;DHT22;13364;49.084;9.978;2024-02-21T17:42:40;9.90;67.30
25438;DHT22;13364;49.084;9.978;2024-02-21T17:45:07;9.90;67.60
25438;DHT22;13364;49.084;9.978;2024-02-21T17:47:34;9.80;67.80
25438;DHT22;13364;49.084;9.978;2024-02-21T17:50:01;9.80;67.90
25438;DHT22;13364;49.084;9.978;2024-02-21T17:52:28;9.80;68.10
25438;DHT22;13364;49.084;9.978;2024-02-21T17:54:56;9.80;68.30
25438;DHT22;13364;49.084;9.978;2024-02-21T17:57:25;9.80;68.40
25438;DHT22;13364;49.084;9.978;2024-02-21T17:59:52;9.70;68.70
25438;DHT22;13364;49.084;9.978;2024-02-21T18:02:20;9.60;69.30
25438;DHT22;13364;49.084;9.978;2024-02-21T18:04:50;9.50;69.80
25438;DHT22;13364;49.084;9.978;2024-02-21T18:07:17;9.40;70.30
25438;DHT22;13364;49.084;9.978;2024-02-21T18:09:47;9.30;71.10
25438;DHT22;13364;49.084;9.978;2024-02-21T18:12:13;9.20;71.50
25438;DHT22;13364;49.084;9.978;2024-02-21T18:14:40;9.10;71.80
25438;DHT22;13364;49.084;9.978;2024-02-21T18:17:07;9.10;72.40
25438;DHT22;13364;49.084;9.978;2024-02-21T18:19:34;9.10;72.70
25438;DHT22;13364;49.084;9.978;2024-02-21T18:22:02;9.10;72.90
25438;DHT22;13364;49.084;9.978;2024-02-21T18:24:30;9.10;73.00
25438;DHT22;13364;49.084;9.978;2024-02-21T18:26:57;9.10;73.30
25438;DHT22;13364;49.084;9.978;2024-02-21T18:29:24;9.00;73.50
25438;DHT22;13364;49.084;9.978;2024-02-21T18:32:06;9.00;73.80
25438;DHT22;13364;49.084;9.978;2024-02-21T18:34:36;9.00;74.10
25438;DHT22;13364;49.084;9.978;2024-02-21T18:37:04;9.00;74.30
25438;DHT22;13364;49.084;9.978;2024-02-21T18:39:30;8.90;74.50
25438;DHT22;13364;49.084;9.978;2024-02-21T18:41:58;8.90;74.80
25438;DHT22;13364;49.084;9.978;2024-02-21T18:44:25;8.90;75.00
25438;DHT22;13364;49.084;9.978;2024-02-21T18:46:52;8.80;75.30
25438;DHT22;13364;49.084;9.978;2024-02-21T18:49:18;8.80;75.70
25438;DHT22;13364;49.084;9.978;2024-02-21T18:51:46;8.80;75.70
25438;DHT22;13364;49.084;9.978;2024-02-21T18:54:13;8.90;75.60
25438;DHT22;13364;49.084;9.978;2024-02-21T18:56:45;8.90;75.30
25438;DHT22;13364;49.084;9.978;2024-02-21T18:59:11;8.90;75.30
25438;DHT22;13364;49.084;9.978;2024-02-21T19:01:38;9.00;75.00
25438;DHT22;13364;49.084;9.978;2024-02-21T19:04:05;8.90;74.60
25438;DHT22;13364;49.084;9.978;2024-02-21T19:06:32;9.00;74.30
25438;DHT22;13364;49.084;9.978;2024-02-21T19:08:59;9.00;74.30
25438;DHT22;13364;49.084;9.978;2024-02-21T19:11:25;9.00;74.00
25438;DHT22;13364;49.084;9.978;2024-02-21T19:13:52;9.00;73.90
25438;DHT22;13364;49.084;9.978;2024-02-21T19:16:19;9.10;74.00
25438;DHT22;13364;49.084;9.978;2024-02-21T19:18:46;9.00;73.90
25438;DHT22;13364;49.084;9.978;2024-02-21T19:21:14;9.00;73.80
25438;DHT22;13364;49.084;9.978;2024-02-21T19:23:41;9.10;73.50
25438;DHT22;13364;49.084;9.978;2024-02-21T19:26:08;9.00;73.50
25438;DHT22;13364;49.084;9.978;2024-02-21T19:28:35;9.10;73.40
25438;DHT22;13364;49.084;9.978;2024-02-21T19:31:04;9.00;73.30
25438;DHT22;13364;49.084;9.978;2024-02-21T19:33:31;9.00;72.70
25438;DHT22;13364;49.084;9.978;2024-02-21T19:35:58;9.00;72.30
25438;DHT22;13364;49.084;9.978;2024-02-21T19:38:26;9.00;71.90
25438;DHT22;13364;49.084;9.978;2024-02-21T19:40:54;9.00;72.00
25438;DHT22;13364;49.084;9.978;2024-02-21T19:43:22;9.10;71.70
25438;DHT22;13364;49.084;9.978;2024-02-21T19:45:49;9.10;71.40
25438;DHT22;13364;49.084;9.978;2024-02-21T19:48:16;9.10;71.10
25438;DHT22;13364;49.084;9.978;2024-02-21T19:50:45;9.10;70.90
25438;DHT22;13364;49.084;9.978;2024-02-21T19:53:12;9.20;70.70
25438;DHT22;13364;49.084;9.978;2024-02-21T19:55:39;9.20;70.40
25438;DHT22;13364;49.084;9.978;2024-02-21T19:58:06;9.20;69.80
25438;DHT22;13364;49.084;9.978;2024-02-21T20:00:33;9.20;69.80
25438;DHT22;13364;49.084;9.978;2024-02-21T20:03:00;9.30;69.80
25438;DHT22;13364;49.084;9.978;2024-02-21T20:05:27;9.30;69.40
25438;DHT22;13364;49.084;9.978;2024-02-21T20:07:54;9.30;68.50
25438;DHT22;13364;49.084;9.978;2024-02-21T20:10:21;9.30;68.50
25438;DHT22;13364;49.084;9.978;2024-02-21T20:12:48;9.30;68.50
25438;DHT22;13364;49.084;9.978;2024-02-21T20:15:15;9.30;68.10
25438;DHT22;13364;49.084;9.978;2024-02-21T20:17:42;9.30;67.50
25438;DHT22;13364;49.084;9.978;2024-02-21T20:20:14;9.30;67.40
25438;DHT22;13364;49.084;9.978;2024-02-21T20:22:41;9.30;67.10
25438;DHT22;13364;49.084;9.978;2024-02-21T20:25:09;9.40;66.80
25438;DHT22;13364;49.084;9.978;2024-02-21T20:27:36;9.50;66.80
25438;DHT22;13364;49.084;9.978;2024-02-21T20:30:04;9.50;66.80
25438;DHT22;13364;49.084;9.978;2024-02-21T20:32:35;9.50;66.40
25438;DHT22;13364;49.084;9.978;2024-02-21T20:35:01;9.60;66.40
25438;DHT22;13364;49.084;9.978;2024-02-21T20:37:30;9.70;66.40
25438;DHT22;13364;49.084;9.978;2024-02-21T20:39:57;9.70;66.00
25438;DHT22;13364;49.084;9.978;2024-02-21T20:42:24;9.80;66.40
25438;DHT22;13364;49.084;9.978;2024-02-21T20:44:51;9.90;65.70
25438;DHT22;13364;49.084;9.978;2024-02-21T20:47:19;10.00;65.60
25438;DHT22;13364;49.084;9.978;2024-02-21T20:49:50;10.00;65.30
25438;DHT22;13364;49.084;9.978;2024-02-21T20:52:19;10.00;64.60
25438;DHT22;13364;49.084;9.978;2024-02-21T20:54:46;10.00;64.50
25438;DHT22;13364;49.084;9.978;2024-02-21T20:57:13;10.00;64.40
25438;DHT22;13364;49.084;9.978;2024-02-21T20:59:40;10.10;64.60
25438;DHT22;13364;49.084;9.978;2024-02-21T21:02:07;10.20;64.00
25438;DHT22;13364;49.084;9.978;2024-02-21T21:04:33;10.20;64.70
25438;DHT22;13364;49.084;9.978;2024-02-21T21:07:01;10.20;64.60
25438;DHT22;13364;49.084;9.978;2024-02-21T21:09:28;10.20;64.20
25438;DHT22;13364;49.084;9.978;2024-02-21T21:11:55;10.20;64.40
25438;DHT22;13364;49.084;9.978;2024-02-21T21:14:22;10.30;64.30
25438;DHT22;13364;49.084;9.978;2024-02-21T21:16:50;10.30;64.30
25438;DHT22;13364;49.084;9.978;2024-02-21T21:19:17;10.30;64.90
25438;DHT22;13364;49.084;9.978;2024-02-21T21:21:44;10.30;64.80
25438;DHT22;13364;49.084;9.978;2024-02-21T21:24:13;10.30;65.70
25438;DHT22;13364;49.084;9.978;2024-02-21T21:26:40;10.20;68.30
25438;DHT22;13364;49.084;9.978;2024-02-21T21:29:06;10.10;68.50
25438;DHT22;13364;49.084;9.978;2024-02-21T21:31:33;10.10;66.90
25438;DHT22;13364;49.084;9.978;2024-02-21T21:34:00;10.10;66.60
25438;DHT22;13364;49.084;9.978;2024-02-21T21:36:27;10.10;66.90
25438;DHT22;13364;49.084;9.978;2024-02-21T21:38:54;10.10;67.00
25438;DHT22;13364;49.084;9.978;2024-02-21T21:41:21;10.00;67.30
25438;DHT22;13364;49.084;9.978;2024-02-21T21:43:50;9.90;68.50
25438;DHT22;13364;49.084;9.978;2024-02-21T21:46:17;9.90;69.40
25438;DHT22;13364;49.084;9.978;2024-02-21T21:48:44;9.80;69.40
25438;DHT22;13364;49.084;9.978;2024-02-21T21:51:11;9.80;68.00
25438;DHT22;13364;49.084;9.978;2024-02-21T21:53:38;9.80;72.50
25438;DHT22;13364;49.084;9.978;2024-02-21T21:56:06;9.70;70.70
25438;DHT22;13364;49.084;9.978;2024-02-21T21:58:33;9.70;71.20
25438;DHT22;13364;49.084;9.978;2024-02-21T22:01:00;9.80;71.90
25438;DHT22;13364;49.084;9.978;2024-02-21T22:03:27;9.80;70.70
25438;DHT22;13364;49.084;9.978;2024-02-21T22:05:55;9.90;71.40
25438;DHT22;13364;49.084;9.978;2024-02-21T22:08:22;9.90;69.90
25438;DHT22;13364;49.084;9.978;2024-02-21T22:10:49;9.90;69.40
25438;DHT22;13364;49.084;9.978;2024-02-21T22:13:17;9.90;72.10
25438;DHT22;13364;49.084;9.978;2024-02-21T22:15:45;9.80;71.70
25438;DHT22;13364;49.084;9.978;2024-02-21T22:18:13;9.70;71.20
25438;DHT22;13364;49.084;9.978;2024-02-21T22:20:40;9.70;72.30
25438;DHT22;13364;49.084;9.978;2024-02-21T22:23:07;9.70;71.60
25438;DHT22;13364;49.084;9.978;2024-02-21T22:25:33;9.80;74.00
25438;DHT22;13364;49.084;9.978;2024-02-21T22:28:00;9.70;72.80
25438;DHT22;13364;49.084;9.978;2024-02-21T22:30:28;9.70;73.40
25438;DHT22;13364;49.084;9.978;2024-02-21T22:32:55;9.70;72.30
25438;DHT22;13364;49.084;9.978;2024-02-21T22:35:21;9.70;72.60